createdAt,value
2018-04-11T00:00:21.416Z,77.08
2018-04-11T00:00:58.167Z,76.31
2018-04-11T00:01:33.700Z,76.21
2018-04-11T00:02:09.105Z,76.31
2018-04-11T00:02:44.210Z,76.40
2018-04-11T00:03:19.508Z,76.40
2018-04-11T00:03:55.040Z,75.54
2018-04-11T00:04:30.253Z,76.12
2018-04-11T00:05:05.684Z,75.83
2018-04-11T00:05:41.303Z,75.83
2018-04-11T00:06:16.561Z,76.12
2018-04-11T00:06:51.840Z,75.93
2018-04-11T00:07:27.059Z,75.64
2018-04-11T00:08:02.370Z,76.02
2018-04-11T00:08:37.782Z,76.31
2018-04-11T00:09:13.421Z,75.93
2018-04-11T00:09:48.814Z,76.12
2018-04-11T00:10:24.125Z,75.98
2018-04-11T00:10:59.732Z,76.50
2018-04-11T00:11:35.187Z,76.60
2018-04-11T00:12:10.870Z,76.27
2018-04-11T00:12:46.202Z,76.40
2018-04-11T00:13:21.596Z,76.50
2018-04-11T00:13:56.829Z,76.69
2018-04-11T00:14:32.168Z,76.31
2018-04-11T00:15:07.580Z,76.37
2018-04-11T00:15:43.606Z,76.69
2018-04-11T00:16:19.121Z,76.56
2018-04-11T00:16:54.559Z,76.21
2018-04-11T00:17:29.641Z,76.79
2018-04-11T00:18:04.893Z,75.98
2018-04-11T00:18:40.090Z,76.27
2018-04-11T00:19:15.668Z,76.40
2018-04-11T00:19:51.063Z,76.65
2018-04-11T00:20:26.475Z,76.46
2018-04-11T00:21:01.889Z,75.79
2018-04-11T00:21:37.313Z,75.98
2018-04-11T00:22:12.546Z,75.60
2018-04-11T00:22:47.842Z,75.60
2018-04-11T00:23:23.792Z,75.60
2018-04-11T00:23:59.320Z,75.93
2018-04-11T00:24:34.558Z,75.70
2018-04-11T00:25:10.036Z,75.98
2018-04-11T00:25:45.436Z,76.18
2018-04-11T00:26:20.671Z,75.41
2018-04-11T00:26:56.189Z,75.51
2018-04-11T00:27:31.481Z,75.41
2018-04-11T00:28:07.000Z,75.12
2018-04-11T00:28:42.421Z,75.31
2018-04-11T00:29:17.427Z,75.31
2018-04-11T00:29:52.761Z,75.02
2018-04-11T00:30:28.256Z,74.84
2018-04-11T00:31:04.048Z,74.84
2018-04-11T00:31:39.240Z,74.93
2018-04-11T00:32:14.777Z,75.02
2018-04-11T00:32:50.229Z,74.74
2018-04-11T00:33:25.435Z,75.02
2018-04-11T00:34:00.680Z,74.26
2018-04-11T00:34:36.158Z,74.65
2018-04-11T00:35:11.462Z,74.65
2018-04-11T00:35:46.894Z,74.07
2018-04-11T00:36:22.401Z,74.07
2018-04-11T00:36:57.836Z,73.97
2018-04-11T00:37:33.052Z,74.16
2018-04-11T00:38:08.364Z,74.16
2018-04-11T00:38:43.971Z,73.69
2018-04-11T00:39:19.073Z,73.50
2018-04-11T00:39:54.492Z,73.40
2018-04-11T00:40:29.649Z,73.40
2018-04-11T00:41:05.058Z,73.02
2018-04-11T00:41:40.563Z,73.11
2018-04-11T00:42:15.852Z,72.92
2018-04-11T00:42:51.156Z,72.83
2018-04-11T00:43:26.442Z,72.34
2018-04-11T00:44:01.747Z,72.54
2018-04-11T00:44:37.060Z,72.22
2018-04-11T00:45:12.296Z,72.25
2018-04-11T00:45:47.697Z,71.58
2018-04-11T00:46:23.188Z,72.12
2018-04-11T00:46:58.476Z,71.93
2018-04-11T00:47:33.559Z,71.93
2018-04-11T00:48:08.901Z,71.26
2018-04-11T00:48:44.085Z,70.97
2018-04-11T00:49:19.399Z,71.93
2018-04-11T00:49:54.715Z,71.07
2018-04-11T00:50:30.273Z,71.16
2018-04-11T00:51:05.678Z,71.16
2018-04-11T00:51:41.032Z,71.07
2018-04-11T00:52:16.309Z,71.16
2018-04-11T00:52:51.847Z,71.07
2018-04-11T00:53:27.377Z,70.78
2018-04-11T00:54:02.764Z,70.59
2018-04-11T00:54:38.085Z,70.78
2018-04-11T00:55:13.404Z,70.59
2018-04-11T00:55:48.508Z,70.68
2018-04-11T00:56:23.904Z,70.68
2018-04-11T00:56:59.219Z,70.01
2018-04-11T00:57:34.707Z,69.92
2018-04-11T00:58:10.248Z,69.92
2018-04-11T00:58:45.535Z,70.01
2018-04-11T00:59:20.977Z,69.92
2018-04-11T00:59:56.411Z,70.30
2018-04-11T01:00:31.719Z,70.21
2018-04-11T01:01:07.160Z,69.64
2018-04-11T01:01:42.777Z,69.35
2018-04-11T01:02:18.294Z,69.64
2018-04-11T01:02:53.674Z,69.64
2018-04-11T01:03:29.089Z,69.54
2018-04-11T01:04:04.288Z,69.92
2018-04-11T01:04:40.219Z,69.64
2018-04-11T01:05:15.434Z,69.73
2018-04-11T01:05:51.244Z,69.64
2018-04-11T01:06:26.693Z,68.87
2018-04-11T01:07:02.085Z,69.31
2018-04-11T01:07:37.661Z,69.31
2018-04-11T01:08:12.880Z,69.41
2018-04-11T01:08:48.105Z,68.93
2018-04-11T01:09:23.400Z,68.84
2018-04-11T01:09:58.540Z,68.84
2018-04-11T01:10:33.732Z,68.74
2018-04-11T01:11:09.195Z,68.74
2018-04-11T01:11:44.732Z,68.84
2018-04-11T01:12:20.163Z,68.93
2018-04-11T01:12:55.483Z,68.93
2018-04-11T01:13:30.594Z,68.64
2018-04-11T01:14:06.152Z,68.74
2018-04-11T01:14:41.652Z,68.64
2018-04-11T01:15:17.131Z,68.74
2018-04-11T01:15:52.544Z,68.55
2018-04-11T01:16:27.988Z,68.45
2018-04-11T01:17:03.606Z,68.55
2018-04-11T01:17:39.337Z,68.07
2018-04-11T01:18:14.683Z,67.97
2018-04-11T01:18:49.983Z,68.35
2018-04-11T01:19:25.397Z,68.74
2018-04-11T01:20:00.835Z,68.55
2018-04-11T01:20:36.260Z,68.16
2018-04-11T01:21:11.639Z,67.69
2018-04-11T01:21:46.774Z,68.35
2018-04-11T01:22:22.189Z,68.26
2018-04-11T01:22:57.719Z,68.16
2018-04-11T01:23:33.049Z,68.26
2018-04-11T01:24:08.475Z,68.16
2018-04-11T01:24:43.911Z,68.55
2018-04-11T01:25:19.132Z,68.07
2018-04-11T01:25:54.466Z,68.26
2018-04-11T01:26:29.995Z,68.45
2018-04-11T01:27:05.635Z,67.88
2018-04-11T01:27:41.037Z,68.55
2018-04-11T01:28:16.572Z,68.55
2018-04-11T01:28:52.066Z,68.16
2018-04-11T01:29:28.117Z,67.88
2018-04-11T01:30:03.373Z,68.07
2018-04-11T01:30:39.512Z,68.07
2018-04-11T01:31:15.341Z,67.65
2018-04-11T01:31:50.718Z,67.46
2018-04-11T01:32:26.351Z,67.30
2018-04-11T01:33:01.653Z,67.97
2018-04-11T01:33:36.985Z,67.36
2018-04-11T01:34:12.114Z,67.46
2018-04-11T01:34:47.374Z,68.13
2018-04-11T01:35:22.805Z,67.18
2018-04-11T01:35:58.205Z,67.46
2018-04-11T01:36:33.460Z,66.89
2018-04-11T01:37:08.495Z,67.84
2018-04-11T01:37:43.717Z,67.55
2018-04-11T01:38:18.937Z,67.75
2018-04-11T01:38:54.298Z,67.27
2018-04-11T01:39:29.688Z,67.27
2018-04-11T01:40:04.915Z,67.08
2018-04-11T01:40:41.394Z,67.08
2018-04-11T01:41:16.859Z,67.27
2018-04-11T01:41:52.269Z,66.99
2018-04-11T01:42:27.467Z,66.79
2018-04-11T01:43:02.677Z,66.99
2018-04-11T01:43:38.263Z,66.70
2018-04-11T01:44:13.791Z,67.18
2018-04-11T01:44:49.095Z,67.08
2018-04-11T01:45:24.345Z,67.18
2018-04-11T01:45:59.646Z,66.70
2018-04-11T01:46:35.110Z,67.08
2018-04-11T01:47:10.237Z,66.22
2018-04-11T01:47:45.362Z,66.60
2018-04-11T01:48:20.693Z,66.70
2018-04-11T01:48:55.692Z,67.08
2018-04-11T01:49:31.129Z,66.66
2018-04-11T01:50:06.314Z,66.19
2018-04-11T01:50:42.337Z,66.31
2018-04-11T01:51:17.564Z,66.41
2018-04-11T01:51:53.102Z,66.13
2018-04-11T01:52:28.282Z,66.79
2018-04-11T01:53:03.599Z,65.84
2018-04-11T01:53:39.096Z,66.13
2018-04-11T01:54:14.413Z,66.00
2018-04-11T01:54:49.940Z,65.52
2018-04-11T01:55:25.232Z,65.42
2018-04-11T01:56:00.801Z,64.94
2018-04-11T01:56:36.821Z,65.52
2018-04-11T01:57:12.366Z,65.52
2018-04-11T01:57:47.467Z,65.04
2018-04-11T01:58:22.930Z,64.94
2018-04-11T01:58:58.229Z,65.14
2018-04-11T01:59:33.265Z,65.04
2018-04-11T02:00:08.615Z,64.94
2018-04-11T02:00:43.815Z,64.85
2018-04-11T02:01:19.080Z,64.94
2018-04-11T02:01:54.301Z,65.04
2018-04-11T02:02:29.430Z,64.94
2018-04-11T02:03:04.717Z,65.04
2018-04-11T02:03:40.439Z,64.94
2018-04-11T02:04:15.760Z,65.14
2018-04-11T02:04:51.080Z,65.23
2018-04-11T02:05:26.558Z,64.94
2018-04-11T02:06:01.873Z,64.75
2018-04-11T02:06:37.433Z,64.56
2018-04-11T02:07:13.234Z,64.65
2018-04-11T02:07:48.548Z,64.28
2018-04-11T02:08:24.148Z,64.37
2018-04-11T02:08:59.659Z,64.47
2018-04-11T02:09:34.687Z,64.47
2018-04-11T02:10:10.211Z,64.18
2018-04-11T02:10:45.902Z,64.09
2018-04-11T02:11:21.080Z,63.89
2018-04-11T02:11:56.564Z,63.70
2018-04-11T02:12:32.211Z,63.99
2018-04-11T02:13:07.536Z,63.03
2018-04-11T02:13:42.965Z,63.51
2018-04-11T02:14:18.410Z,63.80
2018-04-11T02:14:53.515Z,63.60
2018-04-11T02:15:28.837Z,63.51
2018-04-11T02:16:04.154Z,63.70
2018-04-11T02:16:39.615Z,64.37
2018-04-11T02:17:15.046Z,63.99
2018-04-11T02:17:50.468Z,63.80
2018-04-11T02:18:25.780Z,63.42
2018-04-11T02:19:01.071Z,63.23
2018-04-11T02:19:36.687Z,62.75
2018-04-11T02:20:12.095Z,63.29
2018-04-11T02:20:48.032Z,63.13
2018-04-11T02:21:23.256Z,63.29
2018-04-11T02:21:58.672Z,63.39
2018-04-11T02:22:34.271Z,63.32
2018-04-11T02:23:09.943Z,62.91
2018-04-11T02:23:45.163Z,62.81
2018-04-11T02:24:20.493Z,62.34
2018-04-11T02:24:55.535Z,62.24
2018-04-11T02:25:30.946Z,62.52
2018-04-11T02:26:06.391Z,62.24
2018-04-11T02:26:41.796Z,62.24
2018-04-11T02:27:17.359Z,62.24
2018-04-11T02:27:52.606Z,62.43
2018-04-11T02:28:28.251Z,61.95
2018-04-11T02:29:03.540Z,62.05
2018-04-11T02:29:38.960Z,62.15
2018-04-11T02:30:14.348Z,62.43
2018-04-11T02:30:49.950Z,62.52
2018-04-11T02:31:25.203Z,61.47
2018-04-11T02:32:00.551Z,62.24
2018-04-11T02:32:36.093Z,62.05
2018-04-11T02:33:11.371Z,61.86
2018-04-11T02:33:46.707Z,61.66
2018-04-11T02:34:22.114Z,61.66
2018-04-11T02:34:57.431Z,61.38
2018-04-11T02:35:32.807Z,61.29
2018-04-11T02:36:08.068Z,60.90
2018-04-11T02:36:43.492Z,61.00
2018-04-11T02:37:18.696Z,61.10
2018-04-11T02:37:53.951Z,61.10
2018-04-11T02:38:29.298Z,61.00
2018-04-11T02:39:04.721Z,60.61
2018-04-11T02:39:39.846Z,60.81
2018-04-11T02:40:15.155Z,60.42
2018-04-11T02:40:50.866Z,60.71
2018-04-11T02:41:26.307Z,60.24
2018-04-11T02:42:01.817Z,60.42
2018-04-11T02:42:37.375Z,60.14
2018-04-11T02:43:13.015Z,60.42
2018-04-11T02:43:48.423Z,60.24
2018-04-11T02:44:23.954Z,60.42
2018-04-11T02:44:59.239Z,60.24
2018-04-11T02:45:34.373Z,60.61
2018-04-11T02:46:09.716Z,60.14
2018-04-11T02:46:45.072Z,60.14
2018-04-11T02:47:20.268Z,60.39
2018-04-11T02:47:55.700Z,60.21
2018-04-11T02:48:31.240Z,59.63
2018-04-11T02:49:06.253Z,59.92
2018-04-11T02:49:41.558Z,59.63
2018-04-11T02:50:16.764Z,60.02
2018-04-11T02:50:51.998Z,60.02
2018-04-11T02:51:27.449Z,59.63
2018-04-11T02:52:04.197Z,60.30
2018-04-11T02:52:39.513Z,60.39
2018-04-11T02:53:14.908Z,59.53
2018-04-11T02:53:50.319Z,59.73
2018-04-11T02:54:25.744Z,59.92
2018-04-11T02:55:01.374Z,60.02
2018-04-11T02:55:36.567Z,59.92
2018-04-11T02:56:12.014Z,60.49
2018-04-11T02:56:47.226Z,59.63
2018-04-11T02:57:22.465Z,60.02
2018-04-11T02:57:57.580Z,59.73
2018-04-11T02:58:32.941Z,60.02
2018-04-11T02:59:08.350Z,59.92
2018-04-11T02:59:43.585Z,60.58
2018-04-11T03:00:18.999Z,60.39
2018-04-11T03:00:54.593Z,59.82
2018-04-11T03:01:29.788Z,60.21
2018-04-11T03:02:05.195Z,60.02
2018-04-11T03:02:40.755Z,59.73
2018-04-11T03:03:16.155Z,59.34
2018-04-11T03:03:51.472Z,59.82
2018-04-11T03:04:26.680Z,59.73
2018-04-11T03:05:02.020Z,59.06
2018-04-11T03:05:37.015Z,59.34
2018-04-11T03:06:12.459Z,58.77
2018-04-11T03:06:47.570Z,59.16
2018-04-11T03:07:22.678Z,58.87
2018-04-11T03:07:57.992Z,58.48
2018-04-11T03:08:33.413Z,57.92
2018-04-11T03:09:08.974Z,58.48
2018-04-11T03:09:44.201Z,58.77
2018-04-11T03:10:19.934Z,58.77
2018-04-11T03:10:55.224Z,58.29
2018-04-11T03:11:30.757Z,58.58
2018-04-11T03:12:06.178Z,58.58
2018-04-11T03:12:41.519Z,58.68
2018-04-11T03:13:16.707Z,58.29
2018-04-11T03:13:52.112Z,58.20
2018-04-11T03:14:27.735Z,58.39
2018-04-11T03:15:03.150Z,58.29
2018-04-11T03:15:38.473Z,57.92
2018-04-11T03:16:13.864Z,58.20
2018-04-11T03:16:49.105Z,57.43
2018-04-11T03:17:24.429Z,58.11
2018-04-11T03:17:59.667Z,58.01
2018-04-11T03:18:35.072Z,58.29
2018-04-11T03:19:10.187Z,56.10
2018-04-11T03:19:45.751Z,57.15
2018-04-11T03:20:21.038Z,57.24
2018-04-11T03:20:56.387Z,58.11
2018-04-11T03:21:31.908Z,57.50
2018-04-11T03:22:07.482Z,57.50
2018-04-11T03:22:42.778Z,57.70
2018-04-11T03:23:18.223Z,57.50
2018-04-11T03:23:53.516Z,57.41
2018-04-11T03:24:29.027Z,57.98
2018-04-11T03:25:04.228Z,58.17
2018-04-11T03:25:39.440Z,57.89
2018-04-11T03:26:14.885Z,58.07
2018-04-11T03:26:50.094Z,58.07
2018-04-11T03:27:25.444Z,58.07
2018-04-11T03:28:00.953Z,57.98
2018-04-11T03:28:36.186Z,58.17
2018-04-11T03:29:11.376Z,58.07
2018-04-11T03:29:47.099Z,57.98
2018-04-11T03:30:22.115Z,58.46
2018-04-11T03:30:57.533Z,58.55
2018-04-11T03:31:32.721Z,57.98
2018-04-11T03:32:08.073Z,58.84
2018-04-11T03:32:43.517Z,57.98
2018-04-11T03:33:18.904Z,57.60
2018-04-11T03:33:54.207Z,58.07
2018-04-11T03:34:29.700Z,58.07
2018-04-11T03:35:05.136Z,57.79
2018-04-11T03:35:40.452Z,57.89
2018-04-11T03:36:15.953Z,58.36
2018-04-11T03:36:51.266Z,58.36
2018-04-11T03:37:26.743Z,57.60
2018-04-11T03:38:02.071Z,57.79
2018-04-11T03:38:37.591Z,57.79
2018-04-11T03:39:12.934Z,57.60
2018-04-11T03:39:48.233Z,57.60
2018-04-11T03:40:23.660Z,57.89
2018-04-11T03:40:59.074Z,57.70
2018-04-11T03:41:34.406Z,58.26
2018-04-11T03:42:09.832Z,57.70
2018-04-11T03:42:45.178Z,57.98
2018-04-11T03:43:20.822Z,58.07
2018-04-11T03:43:56.437Z,57.98
2018-04-11T03:44:31.851Z,57.70
2018-04-11T03:45:07.169Z,57.50
2018-04-11T03:45:42.529Z,57.41
2018-04-11T03:46:17.617Z,57.89
2018-04-11T03:46:53.037Z,57.79
2018-04-11T03:47:28.281Z,57.70
2018-04-11T03:48:03.711Z,57.98
2018-04-11T03:48:39.404Z,57.70
2018-04-11T03:49:14.727Z,57.89
2018-04-11T03:49:50.276Z,57.95
2018-04-11T03:50:25.499Z,57.89
2018-04-11T03:51:00.710Z,57.70
2018-04-11T03:51:36.025Z,57.60
2018-04-11T03:52:11.451Z,57.76
2018-04-11T03:52:46.745Z,57.19
2018-04-11T03:53:22.084Z,57.67
2018-04-11T03:53:57.365Z,57.19
2018-04-11T03:54:32.989Z,57.28
2018-04-11T03:55:08.301Z,57.19
2018-04-11T03:55:43.845Z,57.19
2018-04-11T03:56:19.239Z,57.38
2018-04-11T03:56:54.682Z,57.48
2018-04-11T03:57:30.429Z,57.28
2018-04-11T03:58:05.722Z,57.28
2018-04-11T03:58:41.072Z,57.00
2018-04-11T03:59:16.361Z,57.48
2018-04-11T03:59:52.008Z,57.00
2018-04-11T04:00:27.193Z,56.62
2018-04-11T04:01:02.749Z,57.48
2018-04-11T04:01:38.194Z,57.09
2018-04-11T04:02:13.383Z,56.90
2018-04-11T04:02:48.604Z,56.81
2018-04-11T04:03:24.318Z,56.43
2018-04-11T04:03:59.882Z,56.43
2018-04-11T04:04:35.177Z,56.62
2018-04-11T04:05:10.495Z,56.33
2018-04-11T04:05:46.600Z,56.71
2018-04-11T04:06:21.836Z,55.57
2018-04-11T04:06:57.344Z,56.24
2018-04-11T04:07:32.701Z,56.43
2018-04-11T04:08:08.000Z,56.04
2018-04-11T04:08:43.213Z,56.43
2018-04-11T04:09:18.308Z,56.04
2018-04-11T04:09:53.847Z,56.33
2018-04-11T04:10:29.377Z,55.76
2018-04-11T04:11:04.899Z,56.04
2018-04-11T04:11:40.300Z,56.04
2018-04-11T04:12:15.832Z,55.95
2018-04-11T04:12:51.148Z,56.04
2018-04-11T04:13:26.353Z,56.04
2018-04-11T04:14:01.887Z,56.04
2018-04-11T04:14:37.110Z,55.95
2018-04-11T04:15:12.837Z,55.76
2018-04-11T04:15:48.657Z,56.04
2018-04-11T04:16:24.086Z,56.14
2018-04-11T04:16:59.622Z,55.95
2018-04-11T04:17:34.782Z,55.76
2018-04-11T04:18:10.223Z,55.76
2018-04-11T04:18:45.628Z,55.76
2018-04-11T04:19:21.168Z,55.76
2018-04-11T04:19:56.550Z,56.24
2018-04-11T04:20:31.774Z,55.76
2018-04-11T04:21:07.274Z,55.76
2018-04-11T04:21:42.697Z,56.14
2018-04-11T04:22:17.944Z,55.66
2018-04-11T04:22:53.244Z,55.95
2018-04-11T04:23:28.677Z,56.14
2018-04-11T04:24:04.075Z,56.04
2018-04-11T04:24:39.328Z,56.04
2018-04-11T04:25:16.054Z,56.04
2018-04-11T04:25:51.086Z,55.85
2018-04-11T04:26:26.597Z,56.04
2018-04-11T04:27:01.850Z,55.95
2018-04-11T04:27:37.192Z,56.14
2018-04-11T04:28:12.424Z,56.33
2018-04-11T04:28:47.777Z,56.62
2018-04-11T04:29:23.273Z,56.24
2018-04-11T04:29:58.724Z,56.04
2018-04-11T04:30:34.032Z,56.52
2018-04-11T04:31:09.233Z,56.14
2018-04-11T04:31:44.448Z,56.71
2018-04-11T04:32:20.081Z,56.81
2018-04-11T04:32:55.492Z,56.90
2018-04-11T04:33:31.037Z,56.81
2018-04-11T04:34:06.487Z,56.33
2018-04-11T04:34:42.098Z,56.24
2018-04-11T04:35:17.624Z,55.76
2018-04-11T04:35:52.818Z,55.92
2018-04-11T04:36:28.048Z,56.02
2018-04-11T04:37:03.515Z,55.76
2018-04-11T04:37:39.168Z,55.73
2018-04-11T04:38:14.557Z,56.14
2018-04-11T04:38:50.190Z,56.02
2018-04-11T04:39:25.403Z,55.83
2018-04-11T04:40:00.640Z,55.44
2018-04-11T04:40:36.160Z,55.44
2018-04-11T04:41:11.452Z,55.26
2018-04-11T04:41:46.873Z,54.39
2018-04-11T04:42:22.486Z,54.52
2018-04-11T04:42:58.008Z,54.88
2018-04-11T04:43:33.194Z,54.21
2018-04-11T04:44:08.610Z,54.80
2018-04-11T04:44:43.796Z,54.68
2018-04-11T04:45:19.025Z,54.88
2018-04-11T04:45:54.419Z,54.88
2018-04-11T04:46:29.735Z,54.97
2018-04-11T04:47:04.974Z,54.97
2018-04-11T04:47:40.471Z,54.68
2018-04-11T04:48:15.687Z,54.68
2018-04-11T04:48:51.103Z,54.88
2018-04-11T04:49:26.340Z,54.78
2018-04-11T04:50:01.659Z,54.11
2018-04-11T04:50:37.296Z,54.88
2018-04-11T04:51:12.762Z,54.49
2018-04-11T04:51:47.817Z,55.16
2018-04-11T04:52:23.046Z,54.78
2018-04-11T04:52:58.354Z,55.16
2018-04-11T04:53:34.094Z,54.88
2018-04-11T04:54:09.381Z,54.88
2018-04-11T04:54:44.634Z,54.97
2018-04-11T04:55:20.253Z,55.63
2018-04-11T04:55:55.793Z,54.68
2018-04-11T04:56:31.002Z,55.07
2018-04-11T04:57:06.653Z,54.88
2018-04-11T04:57:41.845Z,54.68
2018-04-11T04:58:17.287Z,54.68
2018-04-11T04:58:52.811Z,55.16
2018-04-11T04:59:28.222Z,55.63
2018-04-11T05:00:03.679Z,55.16
2018-04-11T05:00:39.071Z,54.88
2018-04-11T05:01:14.539Z,55.07
2018-04-11T05:01:49.896Z,54.49
2018-04-11T05:02:25.278Z,54.68
2018-04-11T05:03:00.857Z,54.59
2018-04-11T05:03:36.399Z,54.68
2018-04-11T05:04:11.882Z,55.26
2018-04-11T05:04:47.419Z,54.49
2018-04-11T05:05:22.666Z,54.39
2018-04-11T05:05:58.155Z,54.49
2018-04-11T05:06:33.398Z,54.11
2018-04-11T05:07:08.879Z,54.30
2018-04-11T05:07:44.292Z,54.59
2018-04-11T05:08:19.594Z,53.83
2018-04-11T05:08:55.110Z,54.21
2018-04-11T05:09:30.427Z,54.21
2018-04-11T05:10:06.273Z,54.39
2018-04-11T05:10:42.589Z,54.39
2018-04-11T05:11:18.188Z,54.30
2018-04-11T05:11:53.610Z,54.59
2018-04-11T05:12:28.839Z,54.11
2018-04-11T05:13:04.079Z,54.59
2018-04-11T05:13:39.585Z,54.30
2018-04-11T05:14:14.962Z,54.49
2018-04-11T05:14:50.758Z,54.11
2018-04-11T05:15:26.106Z,54.11
2018-04-11T05:16:01.464Z,54.30
2018-04-11T05:16:37.088Z,54.11
2018-04-11T05:17:12.849Z,53.83
2018-04-11T05:17:48.275Z,54.21
2018-04-11T05:18:23.607Z,54.30
2018-04-11T05:18:59.006Z,54.39
2018-04-11T05:19:34.447Z,54.59
2018-04-11T05:20:09.831Z,54.88
2018-04-11T05:20:45.281Z,54.88
2018-04-11T05:21:20.995Z,55.63
2018-04-11T05:21:56.319Z,54.78
2018-04-11T05:22:31.593Z,54.97
2018-04-11T05:23:07.207Z,54.88
2018-04-11T05:23:42.630Z,54.59
2018-04-11T05:24:18.208Z,54.97
2018-04-11T05:24:53.449Z,54.88
2018-04-11T05:25:28.740Z,54.97
2018-04-11T05:26:04.165Z,54.97
2018-04-11T05:26:39.756Z,55.63
2018-04-11T05:27:15.026Z,55.73
2018-04-11T05:27:50.110Z,56.02
2018-04-11T05:28:25.541Z,56.21
2018-04-11T05:29:00.851Z,56.02
2018-04-11T05:29:36.572Z,56.30
2018-04-11T05:30:11.916Z,56.02
2018-04-11T05:30:47.123Z,56.02
2018-04-11T05:31:22.163Z,55.92
2018-04-11T05:31:57.378Z,55.92
2018-04-11T05:32:32.743Z,56.68
2018-04-11T05:33:08.379Z,56.30
2018-04-11T05:33:43.708Z,56.78
2018-04-11T05:34:19.013Z,56.97
2018-04-11T05:34:54.349Z,56.87
2018-04-11T05:35:29.809Z,57.07
2018-04-11T05:36:05.140Z,57.48
2018-04-11T05:36:40.387Z,57.48
2018-04-11T05:37:15.644Z,57.09
2018-04-11T05:37:50.986Z,57.48
2018-04-11T05:38:26.476Z,57.38
2018-04-11T05:39:01.904Z,57.95
2018-04-11T05:39:37.218Z,57.95
2018-04-11T05:40:12.464Z,57.73
2018-04-11T05:40:47.803Z,57.64
2018-04-11T05:41:23.101Z,57.45
2018-04-11T05:41:59.153Z,57.07
2018-04-11T05:42:34.601Z,57.73
2018-04-11T05:43:10.243Z,57.45
2018-04-11T05:43:45.549Z,57.35
2018-04-11T05:44:20.895Z,57.16
2018-04-11T05:44:56.283Z,57.26
2018-04-11T05:45:31.549Z,57.35
2018-04-11T05:46:06.975Z,57.07
2018-04-11T05:46:42.200Z,57.26
2018-04-11T05:47:17.390Z,56.97
2018-04-11T05:47:52.815Z,57.16
2018-04-11T05:48:28.035Z,58.04
2018-04-11T05:49:03.748Z,58.02
2018-04-11T05:49:39.457Z,57.73
2018-04-11T05:50:14.840Z,57.76
2018-04-11T05:50:50.328Z,58.04
2018-04-11T05:51:25.972Z,58.30
2018-04-11T05:52:01.100Z,58.43
2018-04-11T05:52:36.527Z,58.33
2018-04-11T05:53:12.073Z,58.02
2018-04-11T05:53:47.198Z,57.73
2018-04-11T05:54:22.507Z,58.21
2018-04-11T05:54:58.052Z,57.92
2018-04-11T05:55:33.786Z,58.21
2018-04-11T05:56:09.001Z,57.92
2018-04-11T05:56:44.496Z,58.40
2018-04-11T05:57:20.258Z,57.86
2018-04-11T05:57:55.687Z,58.52
2018-04-11T05:58:31.024Z,59.38
2018-04-11T05:59:06.166Z,58.91
2018-04-11T05:59:41.402Z,59.19
2018-04-11T06:00:17.027Z,59.95
2018-04-11T06:00:52.451Z,59.95
2018-04-11T06:01:27.889Z,60.14
2018-04-11T06:02:03.320Z,59.19
2018-04-11T06:02:38.875Z,59.67
2018-04-11T06:03:13.972Z,59.86
2018-04-11T06:03:49.295Z,60.05
2018-04-11T06:04:24.727Z,59.95
2018-04-11T06:05:00.146Z,59.76
2018-04-11T06:05:35.269Z,59.67
2018-04-11T06:06:10.995Z,60.52
2018-04-11T06:06:46.351Z,60.33
2018-04-11T06:07:21.696Z,60.43
2018-04-11T06:07:57.310Z,60.65
2018-04-11T06:08:32.493Z,61.48
2018-04-11T06:09:07.916Z,59.67
2018-04-11T06:09:43.212Z,61.04
2018-04-11T06:10:18.526Z,61.60
2018-04-11T06:10:53.723Z,61.60
2018-04-11T06:11:29.182Z,62.08
2018-04-11T06:12:04.470Z,62.08
2018-04-11T06:12:40.105Z,61.41
2018-04-11T06:13:15.253Z,61.89
2018-04-11T06:13:50.765Z,61.70
2018-04-11T06:14:25.904Z,62.18
2018-04-11T06:15:01.198Z,62.18
2018-04-11T06:15:36.565Z,63.23
2018-04-11T06:16:11.790Z,62.84
2018-04-11T06:16:47.136Z,62.94
2018-04-11T06:17:22.466Z,63.83
2018-04-11T06:17:57.878Z,64.97
2018-04-11T06:18:33.427Z,65.45
2018-04-11T06:19:08.650Z,65.17
2018-04-11T06:19:44.366Z,65.74
2018-04-11T06:20:19.584Z,65.74
2018-04-11T06:20:54.903Z,65.55
2018-04-11T06:21:30.205Z,65.93
2018-04-11T06:22:05.644Z,67.07
2018-04-11T06:22:41.549Z,66.44
2018-04-11T06:23:16.796Z,66.72
2018-04-11T06:23:52.695Z,67.01
2018-04-11T06:24:27.849Z,67.30
2018-04-11T06:25:03.125Z,67.77
2018-04-11T06:25:39.026Z,68.16
2018-04-11T06:26:14.987Z,68.16
2018-04-11T06:26:50.623Z,69.15
2018-04-11T06:27:26.132Z,68.96
2018-04-11T06:28:01.780Z,68.19
2018-04-11T06:28:37.167Z,69.53
2018-04-11T06:29:12.386Z,69.34
2018-04-11T06:29:47.980Z,68.57
2018-04-11T06:30:23.485Z,70.10
2018-04-11T06:30:58.894Z,69.43
2018-04-11T06:31:34.450Z,69.56
2018-04-11T06:32:09.891Z,69.76
2018-04-11T06:32:45.838Z,69.76
2018-04-11T06:33:21.442Z,69.85
2018-04-11T06:33:56.616Z,69.85
2018-04-11T06:34:31.893Z,69.85
2018-04-11T06:35:07.381Z,70.23
2018-04-11T06:35:45.089Z,70.84
2018-04-11T06:36:20.711Z,70.84
2018-04-11T06:36:56.041Z,70.65
2018-04-11T06:37:31.570Z,70.14
2018-04-11T06:38:07.225Z,70.33
2018-04-11T06:38:42.635Z,70.61
2018-04-11T06:39:17.954Z,70.90
2018-04-11T06:39:53.399Z,70.33
2018-04-11T06:40:28.434Z,70.65
2018-04-11T06:41:04.116Z,71.42
2018-04-11T06:41:39.429Z,70.75
2018-04-11T06:42:14.877Z,70.46
2018-04-11T06:42:50.508Z,70.84
2018-04-11T06:43:25.940Z,71.03
2018-04-11T06:44:01.543Z,70.94
2018-04-11T06:44:37.184Z,71.55
2018-04-11T06:45:12.775Z,70.87
2018-04-11T06:45:47.996Z,71.16
2018-04-11T06:46:23.207Z,70.87
2018-04-11T06:46:58.448Z,71.16
2018-04-11T06:47:33.769Z,70.62
2018-04-11T06:48:09.308Z,70.91
2018-04-11T06:48:45.423Z,70.91
2018-04-11T06:49:20.830Z,70.53
2018-04-11T06:49:56.311Z,70.18
2018-04-11T06:50:32.103Z,71.14
2018-04-11T06:51:07.455Z,70.18
2018-04-11T06:51:42.955Z,69.99
2018-04-11T06:52:18.432Z,70.12
2018-04-11T06:52:53.697Z,69.93
2018-04-11T06:53:29.238Z,69.74
2018-04-11T06:54:04.961Z,69.45
2018-04-11T06:54:40.386Z,69.07
2018-04-11T06:55:15.724Z,69.03
2018-04-11T06:55:51.207Z,70.18
2018-04-11T06:56:26.668Z,70.85
2018-04-11T06:57:03.124Z,70.60
2018-04-11T06:57:38.697Z,70.21
2018-04-11T06:58:13.991Z,69.17
2018-04-11T06:58:49.261Z,69.45
2018-04-11T06:59:25.011Z,69.54
2018-04-11T07:00:00.254Z,70.12
2018-04-11T07:00:35.514Z,69.54
2018-04-11T07:01:10.853Z,69.83
2018-04-11T07:01:46.468Z,69.60
2018-04-11T07:02:21.801Z,70.09
2018-04-11T07:02:57.252Z,70.28
2018-04-11T07:03:32.656Z,70.41
2018-04-11T07:04:08.399Z,70.41
2018-04-11T07:04:43.644Z,69.93
2018-04-11T07:05:19.547Z,69.93
2018-04-11T07:05:55.189Z,69.64
2018-04-11T07:06:30.770Z,70.21
2018-04-11T07:07:06.268Z,69.54
2018-04-11T07:07:41.576Z,69.54
2018-04-11T07:08:17.070Z,69.26
2018-04-11T07:08:52.287Z,69.54
2018-04-11T07:09:27.524Z,69.64
2018-04-11T07:10:02.872Z,69.64
2018-04-11T07:10:38.597Z,69.64
2018-04-11T07:11:14.235Z,69.58
2018-04-11T07:11:50.033Z,69.01
2018-04-11T07:12:25.506Z,69.01
2018-04-11T07:13:01.313Z,68.95
2018-04-11T07:13:36.555Z,68.75
2018-04-11T07:14:11.858Z,68.66
2018-04-11T07:14:47.467Z,68.30
2018-04-11T07:15:22.830Z,68.27
2018-04-11T07:15:58.282Z,68.08
2018-04-11T07:16:33.726Z,68.40
2018-04-11T07:17:09.476Z,68.30
2018-04-11T07:17:45.227Z,67.99
2018-04-11T07:18:20.927Z,68.08
2018-04-11T07:18:56.283Z,68.02
2018-04-11T07:19:31.587Z,67.89
2018-04-11T07:20:07.046Z,67.35
2018-04-11T07:20:43.070Z,67.73
2018-04-11T07:21:18.392Z,67.06
2018-04-11T07:21:53.821Z,67.16
2018-04-11T07:22:29.578Z,67.06
2018-04-11T07:23:04.795Z,67.06
2018-04-11T07:23:40.323Z,66.96
2018-04-11T07:24:15.552Z,67.09
2018-04-11T07:24:50.967Z,66.42
2018-04-11T07:25:26.328Z,66.46
2018-04-11T07:26:01.664Z,65.78
2018-04-11T07:26:37.491Z,65.01
2018-04-11T07:27:12.915Z,65.20
2018-04-11T07:27:48.648Z,65.05
2018-04-11T07:28:24.174Z,64.66
2018-04-11T07:28:59.521Z,63.89
2018-04-11T07:29:35.294Z,63.45
2018-04-11T07:30:10.621Z,63.06
2018-04-11T07:30:45.942Z,62.87
2018-04-11T07:31:21.160Z,62.32
2018-04-11T07:31:56.300Z,62.13
2018-04-11T07:32:31.651Z,62.13
2018-04-11T07:33:07.183Z,62.23
2018-04-11T07:33:42.582Z,62.48
2018-04-11T07:34:17.877Z,63.35
2018-04-11T07:34:53.345Z,63.67
2018-04-11T07:35:28.490Z,63.18
2018-04-11T07:36:03.969Z,62.54